sensor_id;sensor_type;location;lat;lon;timestamp;P1;durP1;ratioP1;P2;durP2;ratioP2
13108;SDS011;6620;53.734;11.510;2022-08-23T00:00:31;8.73;;;2.67;;
13108;SDS011;6620;53.734;11.510;2022-08-23T00:02:56;3.63;;;1.90;;
13108;SDS011;6620;53.734;11.510;2022-08-23T00:05:21;5.17;;;2.07;;
13108;SDS011;6620;53.734;11.510;2022-08-23T00:07:46;4.40;;;1.93;;
13108;SDS011;6620;53.734;11.510;2022-08-23T00:10:14;7.97;;;2.27;;
13108;SDS011;6620;53.734;11.510;2022-08-23T00:12:40;6.18;;;1.90;;
13108;SDS011;6620;53.734;11.510;2022-08-23T00:15:06;7.60;;;2.15;;
13108;SDS011;6620;53.734;11.510;2022-08-23T00:17:31;7.15;;;2.17;;
13108;SDS011;6620;53.734;11.510;2022-08-23T00:19:56;5.30;;;1.90;;
13108;SDS011;6620;53.734;11.510;2022-08-23T00:22:22;4.47;;;1.90;;
13108;SDS011;6620;53.734;11.510;2022-08-23T00:24:47;2.92;;;1.10;;
13108;SDS011;6620;53.734;11.510;2022-08-23T00:27:14;5.85;;;2.65;;
13108;SDS011;6620;53.734;11.510;2022-08-23T00:29:50;4.20;;;1.40;;
13108;SDS011;6620;53.734;11.510;2022-08-23T00:32:17;5.30;;;1.67;;
13108;SDS011;6620;53.734;11.510;2022-08-23T00:34:43;4.82;;;2.05;;
13108;SDS011;6620;53.734;11.510;2022-08-23T00:37:08;5.22;;;1.52;;
13108;SDS011;6620;53.734;11.510;2022-08-23T00:39:34;4.55;;;1.58;;
13108;SDS011;6620;53.734;11.510;2022-08-23T00:42:03;3.65;;;1.42;;
13108;SDS011;6620;53.734;11.510;2022-08-23T00:44:48;6.47;;;2.05;;
13108;SDS011;6620;53.734;11.510;2022-08-23T00:47:32;9.63;;;1.70;;
13108;SDS011;6620;53.734;11.510;2022-08-23T00:50:13;2.55;;;1.33;;
13108;SDS011;6620;53.734;11.510;2022-08-23T00:52:49;3.90;;;1.42;;
13108;SDS011;6620;53.734;11.510;2022-08-23T00:55:15;2.95;;;1.15;;
13108;SDS011;6620;53.734;11.510;2022-08-23T00:57:41;3.53;;;1.27;;
13108;SDS011;6620;53.734;11.510;2022-08-23T01:00:07;4.75;;;1.67;;
13108;SDS011;6620;53.734;11.510;2022-08-23T01:02:33;7.75;;;1.75;;
13108;SDS011;6620;53.734;11.510;2022-08-23T01:04:59;6.72;;;1.35;;
13108;SDS011;6620;53.734;11.510;2022-08-23T01:07:27;4.55;;;1.40;;
13108;SDS011;6620;53.734;11.510;2022-08-23T01:09:56;4.90;;;1.48;;
13108;SDS011;6620;53.734;11.510;2022-08-23T01:12:23;4.57;;;1.60;;
13108;SDS011;6620;53.734;11.510;2022-08-23T01:14:59;3.03;;;1.40;;
13108;SDS011;6620;53.734;11.510;2022-08-23T01:17:34;5.05;;;1.50;;
13108;SDS011;6620;53.734;11.510;2022-08-23T01:20:07;2.72;;;1.25;;
13108;SDS011;6620;53.734;11.510;2022-08-23T01:22:43;1.85;;;1.20;;
13108;SDS011;6620;53.734;11.510;2022-08-23T01:25:10;3.35;;;1.65;;
13108;SDS011;6620;53.734;11.510;2022-08-23T01:27:37;3.92;;;1.52;;
13108;SDS011;6620;53.734;11.510;2022-08-23T01:30:06;4.90;;;2.00;;
13108;SDS011;6620;53.734;11.510;2022-08-23T01:32:33;3.35;;;1.48;;
13108;SDS011;6620;53.734;11.510;2022-08-23T01:35:01;2.72;;;1.38;;
13108;SDS011;6620;53.734;11.510;2022-08-23T01:37:27;4.53;;;1.38;;
13108;SDS011;6620;53.734;11.510;2022-08-23T01:39:52;5.00;;;1.57;;
13108;SDS011;6620;53.734;11.510;2022-08-23T01:42:19;2.90;;;1.48;;
13108;SDS011;6620;53.734;11.510;2022-08-23T01:44:44;3.60;;;2.20;;
13108;SDS011;6620;53.734;11.510;2022-08-23T01:47:09;2.53;;;1.65;;
13108;SDS011;6620;53.734;11.510;2022-08-23T01:49:35;3.60;;;1.48;;
13108;SDS011;6620;53.734;11.510;2022-08-23T01:52:00;3.80;;;1.58;;
13108;SDS011;6620;53.734;11.510;2022-08-23T01:54:25;1.97;;;1.30;;
13108;SDS011;6620;53.734;11.510;2022-08-23T01:56:50;4.18;;;1.27;;
13108;SDS011;6620;53.734;11.510;2022-08-23T01:59:15;3.13;;;1.30;;
13108;SDS011;6620;53.734;11.510;2022-08-23T02:01:41;2.65;;;1.27;;
13108;SDS011;6620;53.734;11.510;2022-08-23T02:04:06;3.67;;;1.35;;
13108;SDS011;6620;53.734;11.510;2022-08-23T02:06:31;2.25;;;1.42;;
13108;SDS011;6620;53.734;11.510;2022-08-23T02:08:57;2.30;;;1.33;;
13108;SDS011;6620;53.734;11.510;2022-08-23T02:11:26;3.60;;;1.45;;
13108;SDS011;6620;53.734;11.510;2022-08-23T02:13:52;2.50;;;1.45;;
13108;SDS011;6620;53.734;11.510;2022-08-23T02:16:28;3.22;;;1.42;;
13108;SDS011;6620;53.734;11.510;2022-08-23T02:18:54;3.17;;;1.02;;
13108;SDS011;6620;53.734;11.510;2022-08-23T02:21:20;2.22;;;1.23;;
13108;SDS011;6620;53.734;11.510;2022-08-23T02:23:46;1.23;;;1.08;;
13108;SDS011;6620;53.734;11.510;2022-08-23T02:26:11;2.60;;;1.20;;
13108;SDS011;6620;53.734;11.510;2022-08-23T02:28:36;2.03;;;1.10;;
13108;SDS011;6620;53.734;11.510;2022-08-23T02:31:02;2.13;;;1.10;;
13108;SDS011;6620;53.734;11.510;2022-08-23T02:33:27;1.52;;;0.93;;
13108;SDS011;6620;53.734;11.510;2022-08-23T02:35:52;2.27;;;0.90;;
13108;SDS011;6620;53.734;11.510;2022-08-23T02:38:18;1.63;;;0.90;;
13108;SDS011;6620;53.734;11.510;2022-08-23T02:40:43;1.35;;;1.13;;
13108;SDS011;6620;53.734;11.510;2022-08-23T02:43:09;1.53;;;1.23;;
13108;SDS011;6620;53.734;11.510;2022-08-23T02:45:35;1.10;;;1.00;;
13108;SDS011;6620;53.734;11.510;2022-08-23T02:48:00;2.03;;;0.75;;
13108;SDS011;6620;53.734;11.510;2022-08-23T02:50:26;1.10;;;0.90;;
13108;SDS011;6620;53.734;11.510;2022-08-23T02:52:52;1.15;;;0.90;;
13108;SDS011;6620;53.734;11.510;2022-08-23T02:55:17;1.58;;;0.98;;
13108;SDS011;6620;53.734;11.510;2022-08-23T02:57:42;1.20;;;0.80;;
13108;SDS011;6620;53.734;11.510;2022-08-23T03:00:08;1.90;;;0.80;;
13108;SDS011;6620;53.734;11.510;2022-08-23T03:02:34;2.45;;;0.85;;
13108;SDS011;6620;53.734;11.510;2022-08-23T03:04:59;2.42;;;0.93;;
13108;SDS011;6620;53.734;11.510;2022-08-23T03:07:24;1.67;;;0.80;;
13108;SDS011;6620;53.734;11.510;2022-08-23T03:09:50;1.10;;;1.00;;
13108;SDS011;6620;53.734;11.510;2022-08-23T03:12:15;1.23;;;0.90;;
13108;SDS011;6620;53.734;11.510;2022-08-23T03:14:40;1.27;;;0.85;;
13108;SDS011;6620;53.734;11.510;2022-08-23T03:17:05;2.25;;;1.05;;
13108;SDS011;6620;53.734;11.510;2022-08-23T03:19:33;1.52;;;1.00;;
13108;SDS011;6620;53.734;11.510;2022-08-23T03:21:59;1.33;;;0.82;;
13108;SDS011;6620;53.734;11.510;2022-08-23T03:24:24;2.20;;;1.00;;
13108;SDS011;6620;53.734;11.510;2022-08-23T03:26:49;1.15;;;0.68;;
13108;SDS011;6620;53.734;11.510;2022-08-23T03:29:15;1.83;;;0.90;;
13108;SDS011;6620;53.734;11.510;2022-08-23T03:31:40;2.88;;;0.82;;
13108;SDS011;6620;53.734;11.510;2022-08-23T03:34:06;2.17;;;0.93;;
13108;SDS011;6620;53.734;11.510;2022-08-23T03:36:31;0.82;;;0.77;;
13108;SDS011;6620;53.734;11.510;2022-08-23T03:38:56;2.78;;;0.65;;
13108;SDS011;6620;53.734;11.510;2022-08-23T03:41:22;0.98;;;0.90;;
13108;SDS011;6620;53.734;11.510;2022-08-23T03:43:47;0.80;;;0.60;;
13108;SDS011;6620;53.734;11.510;2022-08-23T03:46:12;0.93;;;0.60;;
13108;SDS011;6620;53.734;11.510;2022-08-23T03:48:47;1.88;;;1.17;;
13108;SDS011;6620;53.734;11.510;2022-08-23T03:51:13;0.80;;;0.60;;
13108;SDS011;6620;53.734;11.510;2022-08-23T03:53:38;0.67;;;0.60;;
13108;SDS011;6620;53.734;11.510;2022-08-23T03:56:03;0.67;;;0.67;;
13108;SDS011;6620;53.734;11.510;2022-08-23T03:58:28;0.98;;;0.65;;
13108;SDS011;6620;53.734;11.510;2022-08-23T04:00:54;2.73;;;0.80;;
13108;SDS011;6620;53.734;11.510;2022-08-23T04:03:19;0.80;;;0.80;;
13108;SDS011;6620;53.734;11.510;2022-08-23T04:05:44;0.90;;;0.70;;
13108;SDS011;6620;53.734;11.510;2022-08-23T04:08:11;2.83;;;0.90;;
13108;SDS011;6620;53.734;11.510;2022-08-23T04:10:36;1.00;;;0.75;;
13108;SDS011;6620;53.734;11.510;2022-08-23T04:13:03;1.20;;;0.85;;
13108;SDS011;6620;53.734;11.510;2022-08-23T04:15:28;1.05;;;0.98;;
13108;SDS011;6620;53.734;11.510;2022-08-23T04:17:54;0.80;;;0.77;;
13108;SDS011;6620;53.734;11.510;2022-08-23T04:20:20;1.75;;;0.90;;
13108;SDS011;6620;53.734;11.510;2022-08-23T04:22:45;2.37;;;1.20;;
13108;SDS011;6620;53.734;11.510;2022-08-23T04:25:14;5.75;;;1.00;;
13108;SDS011;6620;53.734;11.510;2022-08-23T04:27:40;1.70;;;0.80;;
13108;SDS011;6620;53.734;11.510;2022-08-23T04:30:05;0.90;;;0.75;;
13108;SDS011;6620;53.734;11.510;2022-08-23T04:32:30;1.17;;;1.05;;
13108;SDS011;6620;53.734;11.510;2022-08-23T04:34:56;1.50;;;1.23;;
13108;SDS011;6620;53.734;11.510;2022-08-23T04:37:21;4.57;;;1.77;;
13108;SDS011;6620;53.734;11.510;2022-08-23T04:39:47;2.03;;;1.67;;
13108;SDS011;6620;53.734;11.510;2022-08-23T04:42:31;2.97;;;1.65;;
13108;SDS011;6620;53.734;11.510;2022-08-23T04:44:56;1.67;;;1.50;;
13108;SDS011;6620;53.734;11.510;2022-08-23T04:47:21;1.35;;;1.20;;
13108;SDS011;6620;53.734;11.510;2022-08-23T04:49:47;3.15;;;1.40;;
13108;SDS011;6620;53.734;11.510;2022-08-23T04:52:13;3.33;;;2.08;;
13108;SDS011;6620;53.734;11.510;2022-08-23T04:54:39;1.73;;;1.05;;
13108;SDS011;6620;53.734;11.510;2022-08-23T04:57:04;1.30;;;1.00;;
13108;SDS011;6620;53.734;11.510;2022-08-23T04:59:29;1.40;;;1.20;;
13108;SDS011;6620;53.734;11.510;2022-08-23T05:01:55;1.43;;;1.33;;
13108;SDS011;6620;53.734;11.510;2022-08-23T05:04:20;1.30;;;1.20;;
13108;SDS011;6620;53.734;11.510;2022-08-23T05:06:45;2.63;;;1.00;;
13108;SDS011;6620;53.734;11.510;2022-08-23T05:09:11;1.38;;;1.10;;
13108;SDS011;6620;53.734;11.510;2022-08-23T05:11:36;1.00;;;0.93;;
13108;SDS011;6620;53.734;11.510;2022-08-23T05:14:01;3.75;;;0.90;;
13108;SDS011;6620;53.734;11.510;2022-08-23T05:16:27;1.17;;;0.90;;
13108;SDS011;6620;53.734;11.510;2022-08-23T05:18:52;1.57;;;1.00;;
13108;SDS011;6620;53.734;11.510;2022-08-23T05:21:18;0.87;;;0.70;;
13108;SDS011;6620;53.734;11.510;2022-08-23T05:23:44;0.90;;;0.90;;
13108;SDS011;6620;53.734;11.510;2022-08-23T05:26:09;0.90;;;0.90;;
13108;SDS011;6620;53.734;11.510;2022-08-23T05:28:36;1.25;;;1.15;;
13108;SDS011;6620;53.734;11.510;2022-08-23T05:31:06;1.48;;;1.13;;
13108;SDS011;6620;53.734;11.510;2022-08-23T05:33:32;0.88;;;0.88;;
13108;SDS011;6620;53.734;11.510;2022-08-23T05:35:58;2.47;;;0.80;;
13108;SDS011;6620;53.734;11.510;2022-08-23T05:38:24;1.58;;;0.63;;
13108;SDS011;6620;53.734;11.510;2022-08-23T05:40:51;0.93;;;0.90;;
13108;SDS011;6620;53.734;11.510;2022-08-23T05:43:16;0.68;;;0.68;;
13108;SDS011;6620;53.734;11.510;2022-08-23T05:45:42;0.60;;;0.60;;
13108;SDS011;6620;53.734;11.510;2022-08-23T05:48:07;1.35;;;1.13;;
13108;SDS011;6620;53.734;11.510;2022-08-23T05:50:34;2.38;;;0.80;;
13108;SDS011;6620;53.734;11.510;2022-08-23T05:52:59;0.80;;;0.80;;
13108;SDS011;6620;53.734;11.510;2022-08-23T05:55:25;2.50;;;0.90;;
13108;SDS011;6620;53.734;11.510;2022-08-23T05:57:50;1.13;;;1.02;;
13108;SDS011;6620;53.734;11.510;2022-08-23T06:00:15;1.30;;;1.13;;
13108;SDS011;6620;53.734;11.510;2022-08-23T06:02:41;1.70;;;1.40;;
13108;SDS011;6620;53.734;11.510;2022-08-23T06:08:09;1.95;;;1.35;;
13108;SDS011;6620;53.734;11.510;2022-08-23T06:10:35;2.27;;;1.73;;
13108;SDS011;6620;53.734;11.510;2022-08-23T06:13:01;1.38;;;1.27;;
13108;SDS011;6620;53.734;11.510;2022-08-23T06:15:27;1.60;;;1.50;;
13108;SDS011;6620;53.734;11.510;2022-08-23T06:17:52;3.83;;;1.93;;
13108;SDS011;6620;53.734;11.510;2022-08-23T06:20:17;2.07;;;1.57;;
13108;SDS011;6620;53.734;11.510;2022-08-23T06:22:43;1.60;;;1.50;;
13108;SDS011;6620;53.734;11.510;2022-08-23T06:25:08;1.80;;;1.67;;
13108;SDS011;6620;53.734;11.510;2022-08-23T06:27:33;2.08;;;1.50;;
13108;SDS011;6620;53.734;11.510;2022-08-23T06:29:58;2.20;;;1.83;;
13108;SDS011;6620;53.734;11.510;2022-08-23T06:32:24;3.97;;;2.27;;
13108;SDS011;6620;53.734;11.510;2022-08-23T06:34:49;3.80;;;2.23;;
13108;SDS011;6620;53.734;11.510;2022-08-23T06:37:14;3.58;;;2.22;;
13108;SDS011;6620;53.734;11.510;2022-08-23T06:39:40;2.90;;;2.03;;
13108;SDS011;6620;53.734;11.510;2022-08-23T06:42:06;4.97;;;2.35;;
13108;SDS011;6620;53.734;11.510;2022-08-23T06:44:32;3.17;;;2.13;;
13108;SDS011;6620;53.734;11.510;2022-08-23T06:46:58;4.25;;;2.70;;
13108;SDS011;6620;53.734;11.510;2022-08-23T06:49:24;3.42;;;2.00;;
13108;SDS011;6620;53.734;11.510;2022-08-23T06:51:51;2.17;;;1.77;;
13108;SDS011;6620;53.734;11.510;2022-08-23T06:54:17;7.00;;;2.10;;
13108;SDS011;6620;53.734;11.510;2022-08-23T06:56:44;3.58;;;2.00;;
13108;SDS011;6620;53.734;11.510;2022-08-23T06:59:10;6.50;;;1.98;;
13108;SDS011;6620;53.734;11.510;2022-08-23T07:01:40;4.47;;;1.85;;
13108;SDS011;6620;53.734;11.510;2022-08-23T07:04:06;4.80;;;1.77;;
13108;SDS011;6620;53.734;11.510;2022-08-23T07:06:32;5.13;;;2.00;;
13108;SDS011;6620;53.734;11.510;2022-08-23T07:08:58;3.55;;;1.98;;
13108;SDS011;6620;53.734;11.510;2022-08-23T07:11:23;5.45;;;2.30;;
13108;SDS011;6620;53.734;11.510;2022-08-23T07:13:49;4.95;;;2.15;;
13108;SDS011;6620;53.734;11.510;2022-08-23T07:16:17;3.22;;;2.00;;
13108;SDS011;6620;53.734;11.510;2022-08-23T07:18:42;3.38;;;1.48;;
13108;SDS011;6620;53.734;11.510;2022-08-23T07:21:08;3.90;;;1.40;;
13108;SDS011;6620;53.734;11.510;2022-08-23T07:23:34;4.88;;;1.70;;
13108;SDS011;6620;53.734;11.510;2022-08-23T07:26:00;5.83;;;1.67;;
13108;SDS011;6620;53.734;11.510;2022-08-23T07:28:25;3.63;;;1.85;;
13108;SDS011;6620;53.734;11.510;2022-08-23T07:30:51;3.97;;;1.75;;
13108;SDS011;6620;53.734;11.510;2022-08-23T07:33:16;3.40;;;1.20;;
13108;SDS011;6620;53.734;11.510;2022-08-23T07:35:45;4.25;;;1.30;;
13108;SDS011;6620;53.734;11.510;2022-08-23T07:38:11;2.90;;;1.27;;
13108;SDS011;6620;53.734;11.510;2022-08-23T07:40:36;3.77;;;1.30;;
13108;SDS011;6620;53.734;11.510;2022-08-23T07:43:01;5.50;;;1.20;;
13108;SDS011;6620;53.734;11.510;2022-08-23T07:45:27;3.75;;;1.20;;
13108;SDS011;6620;53.734;11.510;2022-08-23T07:47:53;3.38;;;1.38;;
13108;SDS011;6620;53.734;11.510;2022-08-23T07:50:18;3.58;;;1.40;;
13108;SDS011;6620;53.734;11.510;2022-08-23T07:52:43;2.85;;;1.23;;
13108;SDS011;6620;53.734;11.510;2022-08-23T07:55:09;1.92;;;1.25;;
13108;SDS011;6620;53.734;11.510;2022-08-23T07:57:34;4.63;;;1.43;;
13108;SDS011;6620;53.734;11.510;2022-08-23T07:59:59;2.63;;;1.20;;
13108;SDS011;6620;53.734;11.510;2022-08-23T08:02:24;2.27;;;1.03;;
13108;SDS011;6620;53.734;11.510;2022-08-23T08:04:50;2.00;;;1.20;;
13108;SDS011;6620;53.734;11.510;2022-08-23T08:07:15;4.37;;;1.17;;
13108;SDS011;6620;53.734;11.510;2022-08-23T08:09:40;2.57;;;1.17;;
13108;SDS011;6620;53.734;11.510;2022-08-23T08:12:05;2.57;;;0.63;;
13108;SDS011;6620;53.734;11.510;2022-08-23T08:14:30;2.78;;;1.00;;
13108;SDS011;6620;53.734;11.510;2022-08-23T08:16:56;4.03;;;1.63;;
13108;SDS011;6620;53.734;11.510;2022-08-23T08:19:22;3.45;;;1.30;;
13108;SDS011;6620;53.734;11.510;2022-08-23T08:21:47;3.85;;;1.48;;
13108;SDS011;6620;53.734;11.510;2022-08-23T08:24:13;3.08;;;1.15;;
13108;SDS011;6620;53.734;11.510;2022-08-23T08:26:39;3.80;;;0.98;;
13108;SDS011;6620;53.734;11.510;2022-08-23T08:29:05;2.05;;;0.85;;
13108;SDS011;6620;53.734;11.510;2022-08-23T08:31:30;0.82;;;0.60;;
13108;SDS011;6620;53.734;11.510;2022-08-23T08:33:56;4.30;;;1.27;;
13108;SDS011;6620;53.734;11.510;2022-08-23T08:36:35;2.97;;;1.10;;
13108;SDS011;6620;53.734;11.510;2022-08-23T08:39:02;3.63;;;1.48;;
13108;SDS011;6620;53.734;11.510;2022-08-23T08:41:52;3.38;;;1.08;;
13108;SDS011;6620;53.734;11.510;2022-08-23T08:46:49;3.07;;;0.90;;
13108;SDS011;6620;53.734;11.510;2022-08-23T08:57:29;1.30;;;0.77;;
13108;SDS011;6620;53.734;11.510;2022-08-23T09:00:06;3.00;;;0.80;;
13108;SDS011;6620;53.734;11.510;2022-08-23T09:02:33;2.63;;;1.00;;
13108;SDS011;6620;53.734;11.510;2022-08-23T09:04:59;2.08;;;0.70;;
13108;SDS011;6620;53.734;11.510;2022-08-23T09:08:02;4.15;;;1.00;;
13108;SDS011;6620;53.734;11.510;2022-08-23T09:18:02;2.15;;;0.93;;
13108;SDS011;6620;53.734;11.510;2022-08-23T09:20:30;4.50;;;0.80;;
13108;SDS011;6620;53.734;11.510;2022-08-23T09:22:59;3.45;;;0.80;;
13108;SDS011;6620;53.734;11.510;2022-08-23T09:25:27;2.65;;;0.95;;
13108;SDS011;6620;53.734;11.510;2022-08-23T09:27:52;3.00;;;1.05;;
13108;SDS011;6620;53.734;11.510;2022-08-23T09:30:18;2.03;;;0.75;;
13108;SDS011;6620;53.734;11.510;2022-08-23T09:32:44;2.72;;;0.80;;
13108;SDS011;6620;53.734;11.510;2022-08-23T09:35:18;1.50;;;0.80;;
13108;SDS011;6620;53.734;11.510;2022-08-23T09:40:19;2.55;;;1.00;;
13108;SDS011;6620;53.734;11.510;2022-08-23T09:43:00;1.90;;;0.98;;
13108;SDS011;6620;53.734;11.510;2022-08-23T09:45:38;2.88;;;0.73;;
13108;SDS011;6620;53.734;11.510;2022-08-23T09:48:04;4.40;;;1.25;;
13108;SDS011;6620;53.734;11.510;2022-08-23T09:50:35;1.88;;;1.08;;
13108;SDS011;6620;53.734;11.510;2022-08-23T09:53:04;1.42;;;0.88;;
13108;SDS011;6620;53.734;11.510;2022-08-23T09:55:31;5.97;;;0.70;;
13108;SDS011;6620;53.734;11.510;2022-08-23T09:57:58;1.08;;;0.70;;
13108;SDS011;6620;53.734;11.510;2022-08-23T10:00:25;2.28;;;0.80;;
13108;SDS011;6620;53.734;11.510;2022-08-23T10:02:52;1.17;;;0.60;;
13108;SDS011;6620;53.734;11.510;2022-08-23T10:05:42;1.70;;;0.80;;
13108;SDS011;6620;53.734;11.510;2022-08-23T10:08:07;2.10;;;0.75;;
13108;SDS011;6620;53.734;11.510;2022-08-23T10:10:39;3.87;;;1.00;;
13108;SDS011;6620;53.734;11.510;2022-08-23T10:13:10;1.60;;;0.45;;
13108;SDS011;6620;53.734;11.510;2022-08-23T10:18:34;2.47;;;0.40;;
13108;SDS011;6620;53.734;11.510;2022-08-23T10:21:17;1.20;;;0.70;;
13108;SDS011;6620;53.734;11.510;2022-08-23T10:26:13;1.53;;;0.67;;
13108;SDS011;6620;53.734;11.510;2022-08-23T10:43:07;3.22;;;0.52;;
13108;SDS011;6620;53.734;11.510;2022-08-23T10:45:37;1.42;;;0.70;;
13108;SDS011;6620;53.734;11.510;2022-08-23T10:50:45;2.70;;;0.70;;
13108;SDS011;6620;53.734;11.510;2022-08-23T10:53:13;1.77;;;0.60;;
13108;SDS011;6620;53.734;11.510;2022-08-23T10:55:42;1.50;;;0.60;;
13108;SDS011;6620;53.734;11.510;2022-08-23T10:58:20;0.70;;;0.43;;
13108;SDS011;6620;53.734;11.510;2022-08-23T11:00:46;4.18;;;0.68;;
13108;SDS011;6620;53.734;11.510;2022-08-23T11:05:43;5.43;;;0.90;;
13108;SDS011;6620;53.734;11.510;2022-08-23T11:08:32;2.30;;;0.73;;
13108;SDS011;6620;53.734;11.510;2022-08-23T11:10:58;1.45;;;0.52;;
13108;SDS011;6620;53.734;11.510;2022-08-23T11:13:24;2.00;;;0.65;;
13108;SDS011;6620;53.734;11.510;2022-08-23T11:20:56;2.22;;;0.80;;
13108;SDS011;6620;53.734;11.510;2022-08-23T11:26:08;2.65;;;1.48;;
13108;SDS011;6620;53.734;11.510;2022-08-23T11:33:48;1.33;;;0.70;;
13108;SDS011;6620;53.734;11.510;2022-08-23T11:43:48;2.28;;;0.70;;
13108;SDS011;6620;53.734;11.510;2022-08-23T11:59:01;1.37;;;0.70;;
13108;SDS011;6620;53.734;11.510;2022-08-23T12:01:33;3.97;;;0.73;;
13108;SDS011;6620;53.734;11.510;2022-08-23T12:04:01;2.85;;;0.82;;
13108;SDS011;6620;53.734;11.510;2022-08-23T12:06:38;2.92;;;0.70;;
13108;SDS011;6620;53.734;11.510;2022-08-23T12:09:04;2.53;;;0.60;;
13108;SDS011;6620;53.734;11.510;2022-08-23T12:16:57;2.10;;;0.70;;
13108;SDS011;6620;53.734;11.510;2022-08-23T12:21:54;1.67;;;0.82;;
13108;SDS011;6620;53.734;11.510;2022-08-23T12:24:30;5.88;;;0.60;;
13108;SDS011;6620;53.734;11.510;2022-08-23T12:29:33;3.58;;;0.80;;
13108;SDS011;6620;53.734;11.510;2022-08-23T12:32:06;1.95;;;0.80;;
13108;SDS011;6620;53.734;11.510;2022-08-23T12:37:33;2.05;;;0.45;;
13108;SDS011;6620;53.734;11.510;2022-08-23T12:40:00;2.35;;;0.73;;
13108;SDS011;6620;53.734;11.510;2022-08-23T12:42:29;5.18;;;0.60;;
13108;SDS011;6620;53.734;11.510;2022-08-23T12:45:12;1.60;;;0.90;;
13108;SDS011;6620;53.734;11.510;2022-08-23T12:47:39;1.42;;;0.70;;
13108;SDS011;6620;53.734;11.510;2022-08-23T12:52:37;2.40;;;0.63;;
13108;SDS011;6620;53.734;11.510;2022-08-23T12:55:10;3.80;;;1.13;;
13108;SDS011;6620;53.734;11.510;2022-08-23T12:57:37;3.22;;;0.60;;
13108;SDS011;6620;53.734;11.510;2022-08-23T13:02:34;1.95;;;0.55;;
13108;SDS011;6620;53.734;11.510;2022-08-23T13:05:05;6.68;;;0.73;;
13108;SDS011;6620;53.734;11.510;2022-08-23T13:07:33;2.75;;;0.55;;
13108;SDS011;6620;53.734;11.510;2022-08-23T13:09:59;1.83;;;0.68;;
13108;SDS011;6620;53.734;11.510;2022-08-23T13:12:25;1.10;;;0.80;;
13108;SDS011;6620;53.734;11.510;2022-08-23T13:14:51;4.20;;;0.60;;
13108;SDS011;6620;53.734;11.510;2022-08-23T13:17:28;1.42;;;0.52;;
13108;SDS011;6620;53.734;11.510;2022-08-23T13:22:28;3.25;;;0.73;;
13108;SDS011;6620;53.734;11.510;2022-08-23T13:27:22;3.28;;;0.80;;
13108;SDS011;6620;53.734;11.510;2022-08-23T13:32:29;3.63;;;0.63;;
13108;SDS011;6620;53.734;11.510;2022-08-23T13:35:20;3.85;;;0.70;;
13108;SDS011;6620;53.734;11.510;2022-08-23T13:37:43;2.33;;;0.52;;
13108;SDS011;6620;53.734;11.510;2022-08-23T13:40:10;4.93;;;0.90;;
13108;SDS011;6620;53.734;11.510;2022-08-23T13:50:30;1.57;;;0.60;;
13108;SDS011;6620;53.734;11.510;2022-08-23T13:52:56;1.90;;;0.57;;
13108;SDS011;6620;53.734;11.510;2022-08-23T13:55:21;3.08;;;0.68;;
13108;SDS011;6620;53.734;11.510;2022-08-23T13:57:47;1.27;;;0.82;;
13108;SDS011;6620;53.734;11.510;2022-08-23T14:00:12;2.97;;;0.70;;
13108;SDS011;6620;53.734;11.510;2022-08-23T14:02:38;1.98;;;0.70;;
13108;SDS011;6620;53.734;11.510;2022-08-23T14:05:04;2.13;;;0.50;;
13108;SDS011;6620;53.734;11.510;2022-08-23T14:07:29;5.93;;;0.70;;
13108;SDS011;6620;53.734;11.510;2022-08-23T14:09:54;1.67;;;0.80;;
13108;SDS011;6620;53.734;11.510;2022-08-23T14:12:21;4.68;;;0.80;;
13108;SDS011;6620;53.734;11.510;2022-08-23T14:14:48;2.13;;;0.77;;
13108;SDS011;6620;53.734;11.510;2022-08-23T14:17:13;1.92;;;0.73;;
13108;SDS011;6620;53.734;11.510;2022-08-23T14:19:39;3.03;;;1.25;;
13108;SDS011;6620;53.734;11.510;2022-08-23T14:22:05;2.67;;;0.63;;
13108;SDS011;6620;53.734;11.510;2022-08-23T14:24:30;2.45;;;0.50;;
13108;SDS011;6620;53.734;11.510;2022-08-23T14:26:56;6.23;;;0.67;;
13108;SDS011;6620;53.734;11.510;2022-08-23T14:29:21;2.88;;;0.50;;
13108;SDS011;6620;53.734;11.510;2022-08-23T14:31:47;3.15;;;0.70;;
13108;SDS011;6620;53.734;11.510;2022-08-23T14:34:12;3.03;;;0.90;;
13108;SDS011;6620;53.734;11.510;2022-08-23T14:36:37;3.10;;;0.63;;
13108;SDS011;6620;53.734;11.510;2022-08-23T14:39:03;3.03;;;0.70;;
13108;SDS011;6620;53.734;11.510;2022-08-23T14:41:28;2.33;;;0.95;;
13108;SDS011;6620;53.734;11.510;2022-08-23T14:43:54;2.47;;;0.60;;
13108;SDS011;6620;53.734;11.510;2022-08-23T14:46:20;3.80;;;0.40;;
13108;SDS011;6620;53.734;11.510;2022-08-23T14:48:45;1.08;;;0.65;;
13108;SDS011;6620;53.734;11.510;2022-08-23T14:51:34;1.80;;;0.75;;
13108;SDS011;6620;53.734;11.510;2022-08-23T14:54:00;3.70;;;0.70;;
13108;SDS011;6620;53.734;11.510;2022-08-23T14:56:27;4.85;;;0.70;;
13108;SDS011;6620;53.734;11.510;2022-08-23T14:58:52;1.73;;;0.75;;
13108;SDS011;6620;53.734;11.510;2022-08-23T15:01:18;2.63;;;0.73;;
13108;SDS011;6620;53.734;11.510;2022-08-23T15:03:43;2.25;;;0.68;;
13108;SDS011;6620;53.734;11.510;2022-08-23T15:06:09;3.60;;;0.75;;
13108;SDS011;6620;53.734;11.510;2022-08-23T15:08:35;1.92;;;0.52;;
13108;SDS011;6620;53.734;11.510;2022-08-23T15:11:00;5.15;;;0.98;;
13108;SDS011;6620;53.734;11.510;2022-08-23T15:13:26;1.42;;;0.55;;
13108;SDS011;6620;53.734;11.510;2022-08-23T15:15:51;1.75;;;0.57;;
13108;SDS011;6620;53.734;11.510;2022-08-23T15:18:17;5.35;;;0.80;;
13108;SDS011;6620;53.734;11.510;2022-08-23T15:20:43;2.75;;;0.80;;
13108;SDS011;6620;53.734;11.510;2022-08-23T15:23:09;3.03;;;0.75;;
13108;SDS011;6620;53.734;11.510;2022-08-23T15:25:35;2.92;;;0.80;;
13108;SDS011;6620;53.734;11.510;2022-08-23T15:28:02;2.80;;;0.82;;
13108;SDS011;6620;53.734;11.510;2022-08-23T15:30:27;3.08;;;0.68;;
13108;SDS011;6620;53.734;11.510;2022-08-23T15:32:52;2.78;;;0.80;;
13108;SDS011;6620;53.734;11.510;2022-08-23T15:35:18;3.13;;;0.88;;
13108;SDS011;6620;53.734;11.510;2022-08-23T15:37:43;3.42;;;0.60;;
13108;SDS011;6620;53.734;11.510;2022-08-23T15:40:09;1.37;;;0.60;;
13108;SDS011;6620;53.734;11.510;2022-08-23T15:42:35;2.00;;;0.60;;
13108;SDS011;6620;53.734;11.510;2022-08-23T15:45:00;2.28;;;0.80;;
13108;SDS011;6620;53.734;11.510;2022-08-23T15:47:30;1.65;;;0.57;;
13108;SDS011;6620;53.734;11.510;2022-08-23T15:49:58;7.15;;;0.98;;
13108;SDS011;6620;53.734;11.510;2022-08-23T15:52:23;3.35;;;0.65;;
13108;SDS011;6620;53.734;11.510;2022-08-23T15:54:49;2.28;;;0.57;;
13108;SDS011;6620;53.734;11.510;2022-08-23T15:57:19;4.40;;;0.70;;
13108;SDS011;6620;53.734;11.510;2022-08-23T15:59:44;7.13;;;0.75;;
13108;SDS011;6620;53.734;11.510;2022-08-23T16:02:10;3.20;;;0.68;;
13108;SDS011;6620;53.734;11.510;2022-08-23T16:04:37;4.05;;;1.55;;
13108;SDS011;6620;53.734;11.510;2022-08-23T16:07:03;1.90;;;0.75;;
13108;SDS011;6620;53.734;11.510;2022-08-23T16:09:29;1.30;;;0.60;;
13108;SDS011;6620;53.734;11.510;2022-08-23T16:11:54;2.83;;;0.90;;
13108;SDS011;6620;53.734;11.510;2022-08-23T16:14:19;4.33;;;0.70;;
13108;SDS011;6620;53.734;11.510;2022-08-23T16:16:44;2.50;;;0.67;;
13108;SDS011;6620;53.734;11.510;2022-08-23T16:19:11;3.45;;;0.98;;
13108;SDS011;6620;53.734;11.510;2022-08-23T16:21:37;3.78;;;0.77;;
13108;SDS011;6620;53.734;11.510;2022-08-23T16:24:02;2.13;;;1.02;;
13108;SDS011;6620;53.734;11.510;2022-08-23T16:26:29;3.50;;;0.75;;
13108;SDS011;6620;53.734;11.510;2022-08-23T16:28:55;2.90;;;1.02;;
13108;SDS011;6620;53.734;11.510;2022-08-23T16:31:21;5.85;;;1.25;;
13108;SDS011;6620;53.734;11.510;2022-08-23T16:33:47;2.00;;;0.63;;
13108;SDS011;6620;53.734;11.510;2022-08-23T16:36:12;2.33;;;1.20;;
13108;SDS011;6620;53.734;11.510;2022-08-23T16:38:39;5.78;;;1.25;;
13108;SDS011;6620;53.734;11.510;2022-08-23T16:41:05;2.78;;;1.02;;
13108;SDS011;6620;53.734;11.510;2022-08-23T16:43:30;3.47;;;1.00;;